Time;durP1;ratioP1;P1;durP2;ratioP2;P2;SDS_P1;SDS_P2;PMS_P1;PMS_P2;Temp;Humidity;BMP_temperature;BMP_pressure;BME280_temperature;BME280_humidity;BME280_pressure;Samples;Min_cycle;Max_cycle;Signal;HPM_P1;HPM_P2
2022/02/27 00:00:42;;;;;;;;;;;6.50;99.90;;;;;;4973791;28;20293;-91
2022/02/27 00:03:07;;;;;;;;;;;6.50;99.90;;;;;;4972933;28;19921;-90
2022/02/27 00:05:33;;;;;;;;;;;6.50;99.90;;;;;;4972157;28;19917;-91
2022/02/27 00:07:59;;;;;;;;;;;6.50;99.90;;;;;;4972635;28;19910;-91
2022/02/27 00:10:24;;;;;;;;;;;6.50;99.90;;;;;;4955963;28;19918;-92
2022/02/27 00:12:50;;;;;;;;;;;6.50;99.90;;;;;;4954979;28;20397;-92
2022/02/27 00:15:16;;;;;;;;;;;6.50;99.90;;;;;;4971393;28;19977;-92
2022/02/27 00:17:41;;;;;;;;;;;6.50;99.90;;;;;;4971362;28;19918;-91
2022/02/27 00:20:08;;;;;;;;;;;6.40;99.90;;;;;;4971403;28;19962;-91
2022/02/27 00:22:33;;;;;;;;;;;6.30;99.90;;;;;;4971109;28;19914;-91
2022/02/27 00:25:00;;;;;;;;;;;6.40;99.90;;;;;;4955303;28;19964;-92
2022/02/27 00:27:26;;;;;;;;;;;6.40;99.90;;;;;;4955098;28;19914;-91
2022/02/27 00:29:51;;;;;;;;;;;6.40;99.90;;;;;;4971125;28;19922;-91
2022/02/27 00:32:17;;;;;;;;;;;6.40;99.90;;;;;;4971261;28;19914;-92
2022/02/27 00:34:42;;;;;;;;;;;6.30;99.90;;;;;;4971232;28;19911;-91
2022/02/27 00:37:08;;;;;;;;;;;6.40;99.90;;;;;;4972557;28;20391;-91
2022/02/27 00:39:34;;;;;;;;;;;6.40;99.90;;;;;;4971198;28;19910;-91
2022/02/27 00:41:59;;;;;;;;;;;6.40;99.90;;;;;;4971716;28;19934;-91
2022/02/27 00:44:25;;;;;;;;;;;6.30;99.90;;;;;;4971338;28;19910;-91
2022/02/27 00:46:51;;;;;;;;;;;6.30;99.90;;;;;;4972370;28;20283;-92
2022/02/27 00:49:17;;;;;;;;;;;6.30;99.90;;;;;;4970954;28;19941;-91
2022/02/27 00:51:42;;;;;;;;;;;6.20;99.90;;;;;;4971229;28;19950;-92
2022/02/27 00:54:08;;;;;;;;;;;6.20;99.90;;;;;;4972691;28;20426;-91
2022/02/27 00:56:34;;;;;;;;;;;6.10;99.90;;;;;;4971345;28;20027;-91
2022/02/27 00:58:59;;;;;;;;;;;6.10;99.90;;;;;;4972099;28;19911;-92
2022/02/27 01:01:25;;;;;;;;;;;6.20;99.90;;;;;;4972077;28;19911;-91
2022/02/27 01:03:52;;;;;;;;;;;6.20;99.90;;;;;;4971023;28;19964;-91
2022/02/27 01:06:17;;;;;;;;;;;6.20;99.90;;;;;;4954977;28;19943;-91
2022/02/27 01:08:43;;;;;;;;;;;6.30;99.90;;;;;;4970831;28;19911;-91
2022/02/27 01:11:10;;;;;;;;;;;6.30;99.90;;;;;;4970931;28;20290;-91
2022/02/27 01:13:35;;;;;;;;;;;6.20;99.90;;;;;;4970530;28;19965;-91
2022/02/27 01:16:01;;;;;;;;;;;6.20;99.90;;;;;;4951830;28;19915;-92
2022/02/27 01:18:26;;;;;;;;;;;6.20;99.90;;;;;;4971153;28;19917;-91
2022/02/27 01:20:52;;;;;;;;;;;6.20;99.90;;;;;;4974471;28;20407;-92
2022/02/27 01:23:17;;;;;;;;;;;6.20;99.90;;;;;;4976124;28;20291;-91
2022/02/27 01:25:43;;;;;;;;;;;6.30;99.90;;;;;;4974488;28;20298;-91
2022/02/27 01:28:09;;;;;;;;;;;6.20;99.90;;;;;;4974305;28;19911;-91
2022/02/27 01:30:34;;;;;;;;;;;6.30;99.90;;;;;;4974539;28;20072;-91
2022/02/27 01:33:00;;;;;;;;;;;6.30;99.90;;;;;;4958519;28;19917;-91
2022/02/27 01:35:26;;;;;;;;;;;6.30;99.90;;;;;;4975857;28;20050;-92
2022/02/27 01:37:51;;;;;;;;;;;6.20;99.90;;;;;;4976058;28;19911;-91
2022/02/27 01:40:17;;;;;;;;;;;6.20;99.90;;;;;;4975686;28;19989;-91
2022/02/27 01:42:43;;;;;;;;;;;6.20;99.90;;;;;;4975417;28;19949;-91
2022/02/27 01:45:08;;;;;;;;;;;6.20;99.90;;;;;;4974009;28;19914;-92
2022/02/27 01:47:34;;;;;;;;;;;6.20;99.90;;;;;;4974618;28;20058;-90
2022/02/27 01:50:00;;;;;;;;;;;6.20;99.90;;;;;;4975298;28;19931;-91
2022/02/27 01:52:25;;;;;;;;;;;6.20;99.90;;;;;;4974384;28;19910;-93
2022/02/27 01:54:51;;;;;;;;;;;6.20;99.90;;;;;;4975990;28;19910;-90
2022/02/27 01:57:16;;;;;;;;;;;6.10;99.90;;;;;;4975511;28;19957;-91
2022/02/27 01:59:42;;;;;;;;;;;6.10;99.90;;;;;;4981724;28;19903;-90
2022/02/27 02:02:08;;;;;;;;;;;6.00;99.90;;;;;;4992342;28;19914;-91
2022/02/27 02:04:34;;;;;;;;;;;6.10;99.90;;;;;;4991549;28;20294;-92
2022/02/27 02:06:59;;;;;;;;;;;6.10;99.90;;;;;;4986784;28;19910;-92
2022/02/27 02:09:25;;;;;;;;;;;6.00;99.90;;;;;;4987045;28;19918;-91
2022/02/27 02:11:51;;;;;;;;;;;6.00;99.90;;;;;;4985841;28;19948;-91
2022/02/27 02:14:17;;;;;;;;;;;6.00;99.90;;;;;;4988426;28;19934;-91
2022/02/27 02:16:51;;;;;;;;;;;6.00;99.90;;;;;;4996809;28;19917;-91
2022/02/27 02:19:18;;;;;;;;;;;6.00;99.90;;;;;;4995154;28;19981;-92
2022/02/27 02:21:45;;;;;;;;;;;6.00;99.90;;;;;;4994513;28;19910;-91
2022/02/27 02:24:11;;;;;;;;;;;6.00;99.90;;;;;;4977505;28;19910;-92
2022/02/27 02:26:38;;;;;;;;;;;6.00;99.90;;;;;;4991115;28;19956;-91
2022/02/27 02:29:04;;;;;;;;;;;6.00;99.90;;;;;;4993251;28;19918;-91
2022/02/27 02:31:30;;;;;;;;;;;6.00;99.90;;;;;;4994335;28;19953;-91
2022/02/27 02:33:56;;;;;;;;;;;6.00;99.90;;;;;;4993348;28;19933;-91
2022/02/27 02:36:24;;;;;;;;;;;6.10;99.90;;;;;;4995475;28;19925;-91
2022/02/27 02:38:50;;;;;;;;;;;6.00;99.90;;;;;;4994101;28;20003;-92
2022/02/27 02:41:15;;;;;;;;;;;5.90;99.90;;;;;;4989528;28;19920;-91
2022/02/27 02:43:41;;;;;;;;;;;5.90;99.90;;;;;;4993923;28;19981;-91
2022/02/27 02:46:06;;;;;;;;;;;5.90;99.90;;;;;;4995171;28;19910;-91
2022/02/27 02:48:32;;;;;;;;;;;6.00;99.90;;;;;;4993564;28;20405;-91
2022/02/27 02:50:57;;;;;;;;;;;6.00;99.90;;;;;;4991843;28;19950;-91
2022/02/27 02:53:32;;;;;;;;;;;5.90;99.90;;;;;;4976238;28;19917;-91
2022/02/27 02:55:59;;;;;;;;;;;5.90;99.90;;;;;;4974407;28;19915;-91
2022/02/27 02:58:24;;;;;;;;;;;5.90;99.90;;;;;;4973767;28;19910;-91
2022/02/27 03:00:50;;;;;;;;;;;5.90;99.90;;;;;;4973247;28;19910;-92
2022/02/27 03:03:16;;;;;;;;;;;5.80;99.90;;;;;;4972969;28;19910;-91
2022/02/27 03:05:41;;;;;;;;;;;5.80;99.90;;;;;;4973168;28;19997;-91
2022/02/27 03:08:07;;;;;;;;;;;5.80;99.90;;;;;;4972860;28;20430;-91
2022/02/27 03:10:32;;;;;;;;;;;5.80;99.90;;;;;;4972881;28;20006;-91
2022/02/27 03:12:58;;;;;;;;;;;5.80;99.90;;;;;;4972397;28;20001;-91
2022/02/27 03:15:24;;;;;;;;;;;5.70;99.90;;;;;;4972604;28;19922;-91
2022/02/27 03:17:49;;;;;;;;;;;5.80;99.90;;;;;;4972801;28;19911;-91
2022/02/27 03:20:15;;;;;;;;;;;5.80;99.90;;;;;;4972389;28;20554;-91
2022/02/27 03:22:40;;;;;;;;;;;5.80;99.90;;;;;;4972919;28;19910;-91
2022/02/27 03:25:06;;;;;;;;;;;5.80;99.90;;;;;;4974011;28;19917;-91
2022/02/27 03:27:31;;;;;;;;;;;5.70;99.90;;;;;;4973581;28;19917;-91
2022/02/27 03:29:57;;;;;;;;;;;5.70;99.90;;;;;;4973702;28;20294;-91
2022/02/27 03:32:23;;;;;;;;;;;5.60;99.90;;;;;;4972178;28;19911;-91
2022/02/27 03:34:48;;;;;;;;;;;5.70;99.90;;;;;;4973701;28;19914;-91
2022/02/27 03:37:14;;;;;;;;;;;5.80;99.90;;;;;;4972414;28;19953;-91
2022/02/27 03:39:39;;;;;;;;;;;5.80;99.90;;;;;;4971220;28;19910;-91
2022/02/27 03:42:05;;;;;;;;;;;5.80;99.90;;;;;;4955899;28;20386;-91
2022/02/27 03:44:30;;;;;;;;;;;5.80;99.90;;;;;;4972154;28;20405;-91
2022/02/27 03:46:56;;;;;;;;;;;5.80;99.90;;;;;;4972125;28;19933;-91
2022/02/27 03:49:21;;;;;;;;;;;5.80;99.90;;;;;;4973158;28;20496;-91
2022/02/27 03:51:47;;;;;;;;;;;5.80;99.90;;;;;;4953596;28;19914;-91
2022/02/27 03:54:12;;;;;;;;;;;5.80;99.90;;;;;;4973108;28;19911;-92
2022/02/27 03:56:38;;;;;;;;;;;5.80;99.90;;;;;;4972741;28;19918;-91
2022/02/27 03:59:03;;;;;;;;;;;5.80;99.90;;;;;;4955874;28;19910;-90
2022/02/27 04:01:29;;;;;;;;;;;5.80;99.90;;;;;;4952802;29;20359;-91
2022/02/27 04:03:55;;;;;;;;;;;5.80;99.90;;;;;;4971574;28;19910;-91
2022/02/27 04:06:20;;;;;;;;;;;5.80;99.90;;;;;;4972884;28;20009;-92
2022/02/27 04:08:46;;;;;;;;;;;5.80;99.90;;;;;;4972778;28;19910;-91
2022/02/27 04:11:11;;;;;;;;;;;5.80;99.90;;;;;;4971449;28;19964;-91
2022/02/27 04:13:37;;;;;;;;;;;5.70;99.90;;;;;;4971469;28;20380;-90
2022/02/27 04:16:03;;;;;;;;;;;5.70;99.90;;;;;;4972759;28;19945;-91
2022/02/27 04:18:28;;;;;;;;;;;5.70;99.90;;;;;;4972465;28;19918;-91
2022/02/27 04:20:54;;;;;;;;;;;5.70;99.90;;;;;;4973393;28;20390;-91
2022/02/27 04:23:19;;;;;;;;;;;5.70;99.90;;;;;;4955273;28;19916;-91
2022/02/27 04:25:45;;;;;;;;;;;5.80;99.90;;;;;;4971279;28;20157;-91
2022/02/27 04:28:10;;;;;;;;;;;5.70;99.90;;;;;;4970824;28;19965;-91
2022/02/27 04:30:36;;;;;;;;;;;5.80;99.90;;;;;;4972066;28;19929;-91
2022/02/27 04:33:02;;;;;;;;;;;5.70;99.90;;;;;;4971320;28;19961;-91
2022/02/27 04:35:28;;;;;;;;;;;5.70;99.90;;;;;;4970866;28;19964;-91
2022/02/27 04:37:54;;;;;;;;;;;5.70;99.90;;;;;;4973413;28;19914;-92
2022/02/27 04:40:20;;;;;;;;;;;5.80;99.90;;;;;;4972872;28;19917;-90
2022/02/27 04:42:46;;;;;;;;;;;5.80;99.90;;;;;;4954550;28;20387;-91
2022/02/27 04:45:11;;;;;;;;;;;5.80;99.90;;;;;;4971063;28;19918;-90
2022/02/27 04:47:37;;;;;;;;;;;5.80;99.90;;;;;;4971065;28;19961;-91
2022/02/27 04:50:06;;;;;;;;;;;5.80;99.90;;;;;;4970722;28;19925;-91
2022/02/27 04:52:31;;;;;;;;;;;5.80;99.90;;;;;;4970847;28;19947;-90
2022/02/27 04:54:57;;;;;;;;;;;5.70;99.90;;;;;;4971050;28;20003;-90
2022/02/27 04:57:22;;;;;;;;;;;5.70;99.90;;;;;;4954924;28;19939;-91
2022/02/27 04:59:48;;;;;;;;;;;5.70;99.90;;;;;;4970628;28;19914;-90
2022/02/27 05:02:13;;;;;;;;;;;5.70;99.90;;;;;;4971045;28;19917;-90
2022/02/27 05:04:39;;;;;;;;;;;5.80;99.90;;;;;;4972035;28;19917;-90
2022/02/27 05:07:05;;;;;;;;;;;5.80;99.90;;;;;;4971008;28;19960;-91
2022/02/27 05:09:33;;;;;;;;;;;5.80;99.90;;;;;;4971067;28;20330;-91
2022/02/27 05:11:59;;;;;;;;;;;5.80;99.90;;;;;;4971621;28;19927;-90
2022/02/27 05:14:25;;;;;;;;;;;5.90;99.90;;;;;;4975268;28;19929;-90
2022/02/27 05:16:50;;;;;;;;;;;5.90;99.90;;;;;;4970875;28;19933;-94
2022/02/27 05:19:17;;;;;;;;;;;5.90;99.90;;;;;;4971795;28;19911;-91
2022/02/27 05:21:43;;;;;;;;;;;6.00;99.90;;;;;;4972005;28;20006;-91
2022/02/27 05:24:08;;;;;;;;;;;5.90;99.90;;;;;;4970453;28;19953;-90
2022/02/27 05:26:34;;;;;;;;;;;6.00;99.90;;;;;;4970216;28;20001;-91
2022/02/27 05:28:59;;;;;;;;;;;6.00;99.90;;;;;;4970505;28;20013;-90
2022/02/27 05:31:25;;;;;;;;;;;6.00;99.90;;;;;;4971721;28;19921;-91
2022/02/27 05:33:51;;;;;;;;;;;5.90;99.90;;;;;;4971569;28;20477;-91
2022/02/27 05:36:16;;;;;;;;;;;5.90;99.90;;;;;;4971689;28;19910;-90
2022/02/27 05:38:42;;;;;;;;;;;5.90;99.90;;;;;;4954697;28;20394;-92
2022/02/27 05:41:07;;;;;;;;;;;5.90;99.90;;;;;;4971747;28;20449;-90
2022/02/27 05:43:33;;;;;;;;;;;5.80;99.90;;;;;;4970366;28;19961;-90
2022/02/27 05:45:59;;;;;;;;;;;5.90;99.90;;;;;;4971538;28;19917;-91
2022/02/27 05:48:24;;;;;;;;;;;5.90;99.90;;;;;;4954036;28;19956;-90
2022/02/27 05:50:50;;;;;;;;;;;5.90;99.90;;;;;;4971383;28;19918;-90
2022/02/27 05:53:15;;;;;;;;;;;6.00;99.90;;;;;;4970107;28;19910;-91
2022/02/27 05:55:41;;;;;;;;;;;5.90;99.90;;;;;;4971658;28;20004;-90
2022/02/27 05:58:06;;;;;;;;;;;5.90;99.90;;;;;;4969718;28;20288;-90
2022/02/27 06:00:32;;;;;;;;;;;5.80;99.90;;;;;;4970338;28;19972;-90
2022/02/27 06:03:00;;;;;;;;;;;5.70;99.90;;;;;;4972101;28;19920;-90
2022/02/27 06:05:26;;;;;;;;;;;5.70;99.90;;;;;;4974964;28;19910;-91
2022/02/27 06:07:52;;;;;;;;;;;5.70;99.90;;;;;;4973701;28;19961;-90
2022/02/27 06:10:18;;;;;;;;;;;5.70;99.90;;;;;;4973479;28;19918;-91
2022/02/27 06:12:48;;;;;;;;;;;5.80;99.90;;;;;;4972983;28;20109;-91
2022/02/27 06:15:13;;;;;;;;;;;5.70;99.90;;;;;;4974584;28;20005;-91
2022/02/27 06:17:39;;;;;;;;;;;5.70;99.90;;;;;;4957084;28;19941;-90
2022/02/27 06:20:05;;;;;;;;;;;5.70;99.90;;;;;;4957172;28;20391;-93
2022/02/27 06:22:32;;;;;;;;;;;5.70;99.90;;;;;;4958013;28;19910;-92
2022/02/27 06:24:58;;;;;;;;;;;5.80;99.90;;;;;;4958684;28;19925;-92
2022/02/27 06:27:24;;;;;;;;;;;5.70;99.90;;;;;;4974362;28;20353;-93
2022/02/27 06:29:49;;;;;;;;;;;5.70;99.90;;;;;;4973575;28;19918;-92
2022/02/27 06:32:15;;;;;;;;;;;5.60;99.90;;;;;;4974192;28;19964;-92
2022/02/27 06:34:40;;;;;;;;;;;5.60;99.90;;;;;;4973448;28;19906;-92
2022/02/27 06:37:06;;;;;;;;;;;5.60;99.90;;;;;;4973572;28;19910;-92
2022/02/27 06:39:31;;;;;;;;;;;5.60;99.90;;;;;;4973273;28;19910;-92
2022/02/27 06:41:58;;;;;;;;;;;5.60;99.90;;;;;;4973080;28;19914;-92
2022/02/27 06:44:23;;;;;;;;;;;5.60;99.90;;;;;;4972810;28;20004;-92
2022/02/27 06:46:49;;;;;;;;;;;5.60;99.90;;;;;;4977830;28;19937;-91
2022/02/27 06:49:14;;;;;;;;;;;5.50;99.90;;;;;;4975618;28;19918;-91
2022/02/27 06:51:40;;;;;;;;;;;5.50;99.90;;;;;;4974873;28;19906;-91
2022/02/27 06:54:06;;;;;;;;;;;5.60;99.90;;;;;;4973672;28;19916;-92
2022/02/27 06:56:31;;;;;;;;;;;5.60;99.90;;;;;;4973899;28;20359;-91
2022/02/27 06:58:57;;;;;;;;;;;5.60;99.90;;;;;;4977938;28;19915;-91
2022/02/27 07:01:23;;;;;;;;;;;5.60;99.90;;;;;;4977254;28;19914;-91
2022/02/27 07:03:48;;;;;;;;;;;5.60;99.90;;;;;;4976485;28;19910;-92
2022/02/27 07:06:14;;;;;;;;;;;5.60;99.90;;;;;;4958824;28;20389;-92
2022/02/27 07:08:39;;;;;;;;;;;5.60;99.90;;;;;;4960140;28;20067;-92
2022/02/27 07:11:05;;;;;;;;;;;5.70;99.90;;;;;;4976442;28;20405;-92
2022/02/27 07:13:30;;;;;;;;;;;5.70;99.90;;;;;;4967928;28;19915;-92
2022/02/27 07:15:56;;;;;;;;;;;5.70;99.90;;;;;;4976848;28;20154;-91
2022/02/27 07:18:21;;;;;;;;;;;5.70;99.90;;;;;;4975744;28;19910;-92
2022/02/27 07:20:47;;;;;;;;;;;5.80;99.90;;;;;;4974840;28;19964;-91
2022/02/27 07:23:13;;;;;;;;;;;5.80;99.90;;;;;;4960902;28;19906;-91
2022/02/27 07:25:38;;;;;;;;;;;5.80;99.90;;;;;;4977242;28;19960;-91
2022/02/27 07:28:05;;;;;;;;;;;5.80;99.90;;;;;;4980192;28;19912;-91
2022/02/27 07:30:30;;;;;;;;;;;5.80;99.90;;;;;;4977264;28;19952;-91
2022/02/27 07:32:56;;;;;;;;;;;5.80;99.90;;;;;;4982701;28;19938;-92
2022/02/27 07:35:22;;;;;;;;;;;6.00;99.90;;;;;;4985760;28;20158;-92
2022/02/27 07:37:47;;;;;;;;;;;6.10;99.90;;;;;;4985209;28;20195;-92
2022/02/27 07:40:13;;;;;;;;;;;6.20;99.90;;;;;;4984353;28;19906;-92
2022/02/27 07:42:38;;;;;;;;;;;6.20;99.90;;;;;;4983478;28;20236;-92
2022/02/27 07:45:04;;;;;;;;;;;6.20;99.90;;;;;;4984019;28;19914;-92
2022/02/27 07:47:30;;;;;;;;;;;6.20;99.90;;;;;;4983899;28;19965;-93
2022/02/27 07:49:56;;;;;;;;;;;6.20;99.90;;;;;;4983158;28;19980;-91
2022/02/27 07:52:21;;;;;;;;;;;6.20;99.90;;;;;;4983429;28;19910;-91
2022/02/27 07:54:47;;;;;;;;;;;6.30;99.90;;;;;;4983143;28;19906;-92
2022/02/27 07:57:12;;;;;;;;;;;6.30;99.90;;;;;;4984271;28;20199;-92
2022/02/27 07:59:38;;;;;;;;;;;6.50;99.90;;;;;;4983822;28;20183;-92
2022/02/27 08:02:03;;;;;;;;;;;6.50;99.90;;;;;;4983035;28;19913;-92
2022/02/27 08:04:29;;;;;;;;;;;6.70;99.90;;;;;;4982294;28;19906;-93
2022/02/27 08:06:56;;;;;;;;;;;6.80;99.90;;;;;;4981190;28;20186;-93
2022/02/27 08:09:21;;;;;;;;;;;7.00;99.90;;;;;;4982351;28;19917;-92
2022/02/27 08:11:47;;;;;;;;;;;7.10;99.90;;;;;;4965461;28;19910;-91
2022/02/27 08:14:12;;;;;;;;;;;7.10;99.90;;;;;;4973442;28;20209;-92
2022/02/27 08:16:38;;;;;;;;;;;7.10;99.90;;;;;;4944797;28;19941;-93
2022/02/27 08:19:04;;;;;;;;;;;7.20;99.90;;;;;;4982885;28;19914;-93
2022/02/27 08:21:30;;;;;;;;;;;7.10;99.90;;;;;;4982362;28;19914;-92
2022/02/27 08:23:56;;;;;;;;;;;7.20;99.90;;;;;;4986344;28;19912;-92
2022/02/27 08:26:22;;;;;;;;;;;7.20;99.90;;;;;;4988862;28;19906;-91
2022/02/27 08:28:48;;;;;;;;;;;7.20;99.90;;;;;;4982230;28;19913;-92
2022/02/27 08:31:13;;;;;;;;;;;7.10;99.90;;;;;;4982679;28;19906;-92
2022/02/27 08:33:39;;;;;;;;;;;7.20;99.90;;;;;;4982519;28;19969;-92
2022/02/27 08:36:04;;;;;;;;;;;7.20;99.90;;;;;;4982745;28;20191;-93
2022/02/27 08:38:30;;;;;;;;;;;7.30;99.90;;;;;;4984005;28;19906;-92
2022/02/27 08:40:56;;;;;;;;;;;7.40;99.90;;;;;;4979189;28;19922;-93
2022/02/27 08:43:21;;;;;;;;;;;7.50;99.90;;;;;;4976013;28;20261;-94
2022/02/27 08:45:48;;;;;;;;;;;7.60;99.90;;;;;;4974861;28;19981;-91
2022/02/27 08:48:14;;;;;;;;;;;7.70;99.90;;;;;;4970191;28;19914;-91
2022/02/27 08:50:40;;;;;;;;;;;7.80;99.90;;;;;;4957486;28;19981;-91
2022/02/27 08:53:05;;;;;;;;;;;8.00;99.90;;;;;;4958351;28;19911;-92
2022/02/27 08:55:31;;;;;;;;;;;8.00;99.90;;;;;;4975650;28;20556;-91
2022/02/27 08:57:57;;;;;;;;;;;8.10;99.90;;;;;;4973328;28;19914;-92
2022/02/27 09:00:23;;;;;;;;;;;8.10;99.90;;;;;;4973597;28;19911;-92
2022/02/27 09:02:49;;;;;;;;;;;8.20;99.90;;;;;;4974312;28;19910;-90
2022/02/27 09:05:15;;;;;;;;;;;8.30;99.90;;;;;;4970769;28;20301;-86
2022/02/27 09:07:40;;;;;;;;;;;8.40;99.90;;;;;;4971512;28;20229;-85
2022/02/27 09:10:08;;;;;;;;;;;8.50;99.90;;;;;;4972279;28;19947;-86
2022/02/27 09:12:34;;;;;;;;;;;8.70;99.90;;;;;;4971646;28;19914;-86
2022/02/27 09:14:59;;;;;;;;;;;8.80;99.90;;;;;;4971629;28;19977;-86
2022/02/27 09:17:25;;;;;;;;;;;9.00;99.90;;;;;;4972250;28;19910;-86
2022/02/27 09:19:50;;;;;;;;;;;9.10;99.90;;;;;;4971611;28;19933;-85
2022/02/27 09:22:16;;;;;;;;;;;9.00;99.90;;;;;;4971860;28;19910;-86
2022/02/27 09:24:44;;;;;;;;;;;9.00;99.90;;;;;;4971489;28;19937;-85
2022/02/27 09:27:10;;;;;;;;;;;9.10;99.90;;;;;;4971218;28;20365;-87
2022/02/27 09:29:35;;;;;;;;;;;9.10;99.90;;;;;;4971760;28;19918;-86
2022/02/27 09:32:01;;;;;;;;;;;9.10;99.90;;;;;;4971937;28;20491;-86
2022/02/27 09:34:27;;;;;;;;;;;9.10;99.90;;;;;;4971487;28;19964;-86
2022/02/27 09:36:52;;;;;;;;;;;9.10;99.90;;;;;;4971774;28;20005;-85
2022/02/27 09:39:18;;;;;;;;;;;9.10;99.90;;;;;;4974537;28;19961;-85
2022/02/27 09:41:44;;;;;;;;;;;9.30;99.90;;;;;;4975821;28;19922;-86
2022/02/27 09:44:10;;;;;;;;;;;9.30;99.90;;;;;;4975596;28;19910;-86
2022/02/27 09:46:36;;;;;;;;;;;9.30;99.90;;;;;;4968823;28;19910;-85
2022/02/27 09:49:02;;;;;;;;;;;9.30;99.90;;;;;;4975214;28;20286;-86
2022/02/27 09:51:28;;;;;;;;;;;9.30;99.90;;;;;;4974956;28;19914;-86
2022/02/27 09:53:53;;;;;;;;;;;9.40;99.90;;;;;;4975128;28;20050;-85
2022/02/27 09:56:19;;;;;;;;;;;9.30;99.90;;;;;;4974353;28;20387;-86
2022/02/27 09:58:45;;;;;;;;;;;9.40;99.90;;;;;;4975100;28;19917;-86
2022/02/27 10:01:12;;;;;;;;;;;9.40;99.90;;;;;;4957652;28;20020;-86
2022/02/27 10:03:38;;;;;;;;;;;9.50;99.90;;;;;;4974722;28;20077;-86
2022/02/27 10:06:05;;;;;;;;;;;9.60;99.90;;;;;;4974864;28;20047;-86
2022/02/27 10:08:40;;;;;;;;;;;9.80;99.90;;;;;;4974630;28;20398;-86
2022/02/27 10:11:07;;;;;;;;;;;10.00;99.90;;;;;;4973642;28;19918;-85
2022/02/27 10:13:32;;;;;;;;;;;10.10;99.90;;;;;;4974165;28;19949;-86
2022/02/27 10:16:11;;;;;;;;;;;10.10;99.90;;;;;;4975093;28;19961;-84
2022/02/27 10:18:39;;;;;;;;;;;10.20;99.90;;;;;;4973162;28;20001;-84
2022/02/27 10:21:16;;;;;;;;;;;10.20;99.90;;;;;;4957302;28;19910;-84
2022/02/27 10:23:42;;;;;;;;;;;10.00;99.90;;;;;;4953010;28;20360;-85
2022/02/27 10:26:22;;;;;;;;;;;10.00;99.90;;;;;;4974774;28;19912;-85
2022/02/27 10:29:03;;;;;;;;;;;10.00;99.90;;;;;;4974335;28;20001;-84
2022/02/27 10:31:29;;;;;;;;;;;10.10;99.90;;;;;;4956664;28;20391;-85
2022/02/27 10:34:18;;;;;;;;;;;10.30;99.90;;;;;;4956865;28;19910;-84
2022/02/27 10:36:49;;;;;;;;;;;10.50;99.90;;;;;;4951199;28;19911;-86
2022/02/27 10:39:24;;;;;;;;;;;10.50;99.90;;;;;;4967040;28;20008;-85
2022/02/27 10:41:50;;;;;;;;;;;10.60;99.90;;;;;;4974181;28;20418;-85
2022/02/27 10:44:21;;;;;;;;;;;10.70;99.90;;;;;;4974598;28;20006;-86
2022/02/27 10:46:46;;;;;;;;;;;10.70;99.90;;;;;;4974899;28;19964;-85
2022/02/27 10:49:12;;;;;;;;;;;10.70;99.90;;;;;;4974084;28;19918;-87
2022/02/27 10:51:39;;;;;;;;;;;10.70;99.90;;;;;;4974355;28;19914;-85
2022/02/27 10:54:04;;;;;;;;;;;10.80;99.90;;;;;;4974399;28;19910;-86
2022/02/27 10:56:33;;;;;;;;;;;11.00;99.90;;;;;;4955846;28;20445;-88
2022/02/27 10:59:10;;;;;;;;;;;11.10;99.90;;;;;;4972766;28;19961;-86
2022/02/27 11:01:40;;;;;;;;;;;11.20;99.90;;;;;;4974281;28;19918;-86
2022/02/27 11:04:07;;;;;;;;;;;11.50;99.90;;;;;;4974228;28;20162;-86
2022/02/27 11:06:33;;;;;;;;;;;11.90;99.90;;;;;;4972379;28;19910;-86
2022/02/27 11:08:58;;;;;;;;;;;12.00;99.90;;;;;;4973603;28;19921;-86
2022/02/27 11:11:25;;;;;;;;;;;12.00;99.90;;;;;;4973206;28;19910;-85
2022/02/27 11:13:50;;;;;;;;;;;12.30;99.90;;;;;;4973428;28;19928;-86
2022/02/27 11:16:16;;;;;;;;;;;12.70;99.90;;;;;;4973447;28;19914;-85
2022/02/27 11:18:42;;;;;;;;;;;12.80;99.90;;;;;;4973609;28;19910;-86
2022/02/27 11:21:08;;;;;;;;;;;12.70;99.90;;;;;;4973309;28;19964;-85
2022/02/27 11:23:36;;;;;;;;;;;12.90;99.90;;;;;;4973393;28;19946;-85
2022/02/27 11:26:03;;;;;;;;;;;13.00;99.90;;;;;;4967245;28;19910;-85
2022/02/27 11:28:29;;;;;;;;;;;12.90;99.90;;;;;;4966644;28;20166;-85
2022/02/27 11:31:00;;;;;;;;;;;13.10;99.90;;;;;;4971312;28;20178;-86
2022/02/27 11:33:25;;;;;;;;;;;13.30;99.90;;;;;;4952394;29;20001;-85
2022/02/27 11:35:51;;;;;;;;;;;13.40;99.90;;;;;;4972889;28;19957;-85
2022/02/27 11:38:31;;;;;;;;;;;13.50;99.90;;;;;;4973084;28;19910;-85
2022/02/27 11:41:09;;;;;;;;;;;13.70;99.90;;;;;;4960278;28;19938;-85
2022/02/27 11:43:38;;;;;;;;;;;14.00;99.90;;;;;;4971811;28;19917;-86
2022/02/27 11:46:04;;;;;;;;;;;14.10;99.90;;;;;;4973016;28;19917;-85
2022/02/27 11:48:48;;;;;;;;;;;14.10;99.90;;;;;;4973476;28;19910;-84
2022/02/27 11:51:34;;;;;;;;;;;14.20;99.90;;;;;;4972976;28;19918;-85
2022/02/27 11:54:03;;;;;;;;;;;14.20;99.90;;;;;;4972923;28;20009;-84
2022/02/27 11:56:29;;;;;;;;;;;14.30;99.90;;;;;;4972408;28;20013;-85
2022/02/27 11:58:56;;;;;;;;;;;14.30;99.90;;;;;;4973561;28;20004;-85
2022/02/27 12:01:57;;;;;;;;;;;14.00;99.90;;;;;;4972357;28;19917;-85
2022/02/27 12:04:24;;;;;;;;;;;13.90;99.90;;;;;;4912839;29;20395;-85
2022/02/27 12:07:02;;;;;;;;;;;14.00;99.90;;;;;;4955794;28;20282;-85
2022/02/27 12:09:48;;;;;;;;;;;14.30;99.90;;;;;;4973065;28;19918;-85
2022/02/27 12:12:34;;;;;;;;;;;14.50;99.90;;;;;;4967050;28;19910;-84
2022/02/27 12:15:16;;;;;;;;;;;14.50;99.90;;;;;;4955212;28;19949;-85
2022/02/27 12:17:55;;;;;;;;;;;14.40;99.90;;;;;;4972803;28;19964;-84
2022/02/27 12:20:40;;;;;;;;;;;14.60;99.90;;;;;;4973058;28;20104;-85
2022/02/27 12:23:07;;;;;;;;;;;14.60;99.90;;;;;;4972455;28;20283;-83
2022/02/27 12:25:36;;;;;;;;;;;14.70;99.90;;;;;;4972029;28;19916;-83
2022/02/27 12:28:01;;;;;;;;;;;14.80;99.90;;;;;;4971858;28;19953;-83
2022/02/27 12:30:27;;;;;;;;;;;14.80;99.90;;;;;;4972209;28;19969;-83
2022/02/27 12:33:10;;;;;;;;;;;14.90;99.90;;;;;;4972308;28;19926;-83
2022/02/27 12:35:37;;;;;;;;;;;14.80;99.90;;;;;;4971998;28;19910;-83
2022/02/27 12:38:13;;;;;;;;;;;14.60;99.90;;;;;;4972174;28;19910;-83
2022/02/27 12:40:39;;;;;;;;;;;14.60;99.90;;;;;;4972305;28;19917;-83
2022/02/27 12:43:06;;;;;;;;;;;14.60;99.90;;;;;;4971631;28;20291;-83
2022/02/27 12:45:33;;;;;;;;;;;14.50;99.90;;;;;;4971796;28;19911;-83
2022/02/27 12:48:13;;;;;;;;;;;14.50;99.90;;;;;;4971840;28;19914;-83
2022/02/27 12:50:56;;;;;;;;;;;14.60;99.90;;;;;;4972291;28;20025;-83
2022/02/27 12:53:27;;;;;;;;;;;14.80;99.90;;;;;;4972228;28;19910;-83
2022/02/27 12:55:53;;;;;;;;;;;15.00;99.90;;;;;;4971973;28;19917;-83
2022/02/27 12:58:18;;;;;;;;;;;14.80;99.90;;;;;;4971671;28;19929;-83
2022/02/27 13:00:46;;;;;;;;;;;14.70;99.90;;;;;;4971633;28;19910;-83
2022/02/27 13:03:12;;;;;;;;;;;14.70;99.90;;;;;;4971965;28;19956;-83
2022/02/27 13:05:38;;;;;;;;;;;14.60;99.90;;;;;;4970295;28;20013;-82
2022/02/27 13:08:05;;;;;;;;;;;14.80;99.90;;;;;;4971882;28;19981;-82
2022/02/27 13:10:31;;;;;;;;;;;14.90;99.90;;;;;;4971518;28;20402;-82
2022/02/27 13:12:57;;;;;;;;;;;15.10;99.90;;;;;;4973903;28;19957;-82
2022/02/27 13:15:22;;;;;;;;;;;15.20;99.90;;;;;;4975959;28;20048;-82
2022/02/27 13:17:48;;;;;;;;;;;15.30;99.90;;;;;;4975512;28;19980;-82
2022/02/27 13:20:15;;;;;;;;;;;15.10;99.90;;;;;;4975922;28;20154;-82
2022/02/27 13:22:43;;;;;;;;;;;15.00;99.90;;;;;;4975572;28;19997;-81
2022/02/27 13:25:10;;;;;;;;;;;14.80;99.90;;;;;;4975432;28;19914;-82
2022/02/27 13:27:38;;;;;;;;;;;14.70;99.90;;;;;;4975908;28;20013;-82
2022/02/27 13:30:14;;;;;;;;;;;14.80;99.90;;;;;;4975797;28;19918;-82
2022/02/27 13:32:41;;;;;;;;;;;15.00;99.90;;;;;;4969213;28;20401;-82
2022/02/27 13:35:07;;;;;;;;;;;15.10;99.90;;;;;;4969038;28;20414;-82
2022/02/27 13:37:35;;;;;;;;;;;14.90;99.90;;;;;;4975525;28;20186;-82
2022/02/27 13:40:05;;;;;;;;;;;15.00;99.90;;;;;;4973528;28;19956;-82
2022/02/27 13:42:31;;;;;;;;;;;15.20;99.90;;;;;;4975048;28;19910;-82
2022/02/27 13:44:57;;;;;;;;;;;15.20;99.90;;;;;;4975540;28;20008;-82
2022/02/27 13:47:24;;;;;;;;;;;15.20;99.90;;;;;;4975190;28;19910;-82
2022/02/27 13:49:49;;;;;;;;;;;15.10;99.90;;;;;;4975318;28;19929;-82
2022/02/27 13:52:21;;;;;;;;;;;15.00;99.90;;;;;;4975146;28;19910;-82
2022/02/27 13:54:48;;;;;;;;;;;14.90;99.90;;;;;;4974971;28;19910;-82
2022/02/27 13:57:14;;;;;;;;;;;15.10;99.90;;;;;;4974470;28;19953;-82
2022/02/27 13:59:50;;;;;;;;;;;14.90;99.90;;;;;;4974592;28;19957;-82
2022/02/27 14:02:48;;;;;;;;;;;14.90;99.90;;;;;;4968614;28;19910;-82
2022/02/27 14:05:14;;;;;;;;;;;15.20;99.90;;;;;;4927559;28;20375;-82
2022/02/27 14:07:46;;;;;;;;;;;15.40;99.90;;;;;;4959808;28;19917;-82
2022/02/27 14:10:20;;;;;;;;;;;15.40;99.90;;;;;;4976593;28;19950;-82
2022/02/27 14:12:56;;;;;;;;;;;15.60;99.90;;;;;;4976187;28;20001;-82
2022/02/27 14:15:30;;;;;;;;;;;15.60;99.90;;;;;;4977136;28;19922;-82
2022/02/27 14:17:55;;;;;;;;;;;15.80;99.90;;;;;;4979161;28;19961;-83
2022/02/27 14:20:27;;;;;;;;;;;15.90;99.90;;;;;;4984795;28;19910;-82
2022/02/27 14:23:03;;;;;;;;;;;15.90;99.90;;;;;;4987637;28;19910;-83
2022/02/27 14:25:28;;;;;;;;;;;16.00;99.90;;;;;;4991447;28;19966;-82